sensor_id;sensor_type;location;lat;lon;timestamp;P1;durP1;ratioP1;P2;durP2;ratioP2
53666;SDS011;39568;51.026;5.468;2022-11-24T00:01:58;18.83;;;2.88;;
53666;SDS011;39568;51.026;5.468;2022-11-24T00:04:25;23.30;;;3.45;;
53666;SDS011;39568;51.026;5.468;2022-11-24T00:06:52;9.70;;;3.13;;
53666;SDS011;39568;51.026;5.468;2022-11-24T00:09:18;17.25;;;3.25;;
53666;SDS011;39568;51.026;5.468;2022-11-24T00:11:45;11.60;;;2.00;;
53666;SDS011;39568;51.026;5.468;2022-11-24T00:14:11;19.75;;;4.00;;
53666;SDS011;39568;51.026;5.468;2022-11-24T00:16:40;27.98;;;2.60;;
53666;SDS011;39568;51.026;5.468;2022-11-24T00:19:07;19.92;;;2.63;;
53666;SDS011;39568;51.026;5.468;2022-11-24T00:21:34;14.65;;;3.38;;
53666;SDS011;39568;51.026;5.468;2022-11-24T00:24:02;15.25;;;3.33;;
53666;SDS011;39568;51.026;5.468;2022-11-24T00:26:29;15.43;;;2.10;;
53666;SDS011;39568;51.026;5.468;2022-11-24T00:28:58;23.05;;;2.53;;
53666;SDS011;39568;51.026;5.468;2022-11-24T00:31:27;28.95;;;2.88;;
53666;SDS011;39568;51.026;5.468;2022-11-24T00:33:56;17.45;;;2.97;;
53666;SDS011;39568;51.026;5.468;2022-11-24T00:36:26;22.00;;;4.32;;
53666;SDS011;39568;51.026;5.468;2022-11-24T00:38:53;15.50;;;2.40;;
53666;SDS011;39568;51.026;5.468;2022-11-24T00:41:21;18.58;;;3.70;;
53666;SDS011;39568;51.026;5.468;2022-11-24T00:43:48;32.88;;;4.38;;
53666;SDS011;39568;51.026;5.468;2022-11-24T00:46:15;33.47;;;3.50;;
53666;SDS011;39568;51.026;5.468;2022-11-24T00:48:42;21.42;;;4.35;;
53666;SDS011;39568;51.026;5.468;2022-11-24T00:51:10;18.83;;;2.80;;
53666;SDS011;39568;51.026;5.468;2022-11-24T00:53:38;15.32;;;2.38;;
53666;SDS011;39568;51.026;5.468;2022-11-24T00:56:05;21.75;;;2.65;;
53666;SDS011;39568;51.026;5.468;2022-11-24T00:58:33;28.75;;;3.25;;
53666;SDS011;39568;51.026;5.468;2022-11-24T01:01:00;15.55;;;4.18;;
53666;SDS011;39568;51.026;5.468;2022-11-24T01:03:28;20.17;;;3.63;;
53666;SDS011;39568;51.026;5.468;2022-11-24T01:05:55;21.98;;;2.95;;
53666;SDS011;39568;51.026;5.468;2022-11-24T01:08:23;12.48;;;3.28;;
53666;SDS011;39568;51.026;5.468;2022-11-24T01:10:49;20.00;;;2.33;;
53666;SDS011;39568;51.026;5.468;2022-11-24T01:13:16;36.05;;;3.40;;
53666;SDS011;39568;51.026;5.468;2022-11-24T01:15:43;26.38;;;3.35;;
53666;SDS011;39568;51.026;5.468;2022-11-24T01:18:09;14.43;;;2.63;;
53666;SDS011;39568;51.026;5.468;2022-11-24T01:20:37;29.50;;;3.20;;
53666;SDS011;39568;51.026;5.468;2022-11-24T01:23:03;28.80;;;4.78;;
53666;SDS011;39568;51.026;5.468;2022-11-24T01:25:31;17.02;;;2.50;;
53666;SDS011;39568;51.026;5.468;2022-11-24T01:27:58;27.95;;;3.85;;
53666;SDS011;39568;51.026;5.468;2022-11-24T01:30:25;20.73;;;2.95;;
53666;SDS011;39568;51.026;5.468;2022-11-24T01:32:51;27.15;;;4.28;;
53666;SDS011;39568;51.026;5.468;2022-11-24T01:35:18;20.35;;;3.83;;
53666;SDS011;39568;51.026;5.468;2022-11-24T01:37:44;21.92;;;2.80;;
53666;SDS011;39568;51.026;5.468;2022-11-24T01:40:11;35.15;;;3.28;;
53666;SDS011;39568;51.026;5.468;2022-11-24T01:42:47;28.42;;;4.10;;
53666;SDS011;39568;51.026;5.468;2022-11-24T01:45:32;31.55;;;3.80;;
53666;SDS011;39568;51.026;5.468;2022-11-24T01:48:01;16.27;;;2.95;;
53666;SDS011;39568;51.026;5.468;2022-11-24T01:50:30;20.17;;;3.90;;
53666;SDS011;39568;51.026;5.468;2022-11-24T01:52:58;17.02;;;3.45;;
53666;SDS011;39568;51.026;5.468;2022-11-24T01:55:26;22.20;;;3.63;;
53666;SDS011;39568;51.026;5.468;2022-11-24T02:00:28;16.00;;;3.70;;
53666;SDS011;39568;51.026;5.468;2022-11-24T02:02:55;25.00;;;3.83;;
53666;SDS011;39568;51.026;5.468;2022-11-24T02:05:25;32.17;;;5.40;;
53666;SDS011;39568;51.026;5.468;2022-11-24T02:07:55;26.77;;;3.40;;
53666;SDS011;39568;51.026;5.468;2022-11-24T02:10:25;24.65;;;2.35;;
53666;SDS011;39568;51.026;5.468;2022-11-24T02:12:52;19.33;;;3.70;;
53666;SDS011;39568;51.026;5.468;2022-11-24T02:15:22;24.92;;;4.05;;
53666;SDS011;39568;51.026;5.468;2022-11-24T02:17:50;8.05;;;2.60;;
53666;SDS011;39568;51.026;5.468;2022-11-24T02:20:16;32.70;;;5.57;;
53666;SDS011;39568;51.026;5.468;2022-11-24T02:22:44;21.35;;;2.75;;
53666;SDS011;39568;51.026;5.468;2022-11-24T02:25:20;25.02;;;4.18;;
53666;SDS011;39568;51.026;5.468;2022-11-24T02:27:54;26.75;;;3.53;;
53666;SDS011;39568;51.026;5.468;2022-11-24T02:30:22;20.58;;;3.97;;
53666;SDS011;39568;51.026;5.468;2022-11-24T02:32:48;33.10;;;3.65;;
53666;SDS011;39568;51.026;5.468;2022-11-24T02:35:16;27.58;;;3.70;;
53666;SDS011;39568;51.026;5.468;2022-11-24T02:37:43;14.55;;;4.03;;
53666;SDS011;39568;51.026;5.468;2022-11-24T02:40:10;36.55;;;4.18;;
53666;SDS011;39568;51.026;5.468;2022-11-24T02:42:41;14.27;;;3.70;;
53666;SDS011;39568;51.026;5.468;2022-11-24T02:45:13;19.13;;;3.72;;
53666;SDS011;39568;51.026;5.468;2022-11-24T02:47:41;17.98;;;3.15;;
53666;SDS011;39568;51.026;5.468;2022-11-24T02:50:08;25.77;;;3.45;;
53666;SDS011;39568;51.026;5.468;2022-11-24T02:52:34;24.17;;;3.30;;
53666;SDS011;39568;51.026;5.468;2022-11-24T02:55:01;33.72;;;3.55;;
53666;SDS011;39568;51.026;5.468;2022-11-24T02:57:28;23.30;;;3.97;;
53666;SDS011;39568;51.026;5.468;2022-11-24T02:59:55;20.50;;;3.45;;
53666;SDS011;39568;51.026;5.468;2022-11-24T03:02:23;36.40;;;6.45;;
53666;SDS011;39568;51.026;5.468;2022-11-24T03:04:49;33.13;;;3.80;;
53666;SDS011;39568;51.026;5.468;2022-11-24T03:07:16;22.92;;;3.65;;
53666;SDS011;39568;51.026;5.468;2022-11-24T03:09:43;36.80;;;4.07;;
53666;SDS011;39568;51.026;5.468;2022-11-24T03:12:09;20.95;;;2.55;;
53666;SDS011;39568;51.026;5.468;2022-11-24T03:14:36;26.65;;;4.32;;
53666;SDS011;39568;51.026;5.468;2022-11-24T03:17:03;27.63;;;3.53;;
53666;SDS011;39568;51.026;5.468;2022-11-24T03:19:31;25.60;;;4.20;;
53666;SDS011;39568;51.026;5.468;2022-11-24T03:21:58;35.80;;;4.57;;
53666;SDS011;39568;51.026;5.468;2022-11-24T03:24:25;23.00;;;3.03;;
53666;SDS011;39568;51.026;5.468;2022-11-24T03:26:51;21.92;;;3.42;;
53666;SDS011;39568;51.026;5.468;2022-11-24T03:29:18;32.10;;;3.60;;
53666;SDS011;39568;51.026;5.468;2022-11-24T03:31:44;23.13;;;4.22;;
53666;SDS011;39568;51.026;5.468;2022-11-24T03:34:11;21.35;;;4.60;;
53666;SDS011;39568;51.026;5.468;2022-11-24T03:36:39;22.52;;;4.25;;
53666;SDS011;39568;51.026;5.468;2022-11-24T03:39:06;9.55;;;2.15;;
53666;SDS011;39568;51.026;5.468;2022-11-24T03:41:33;15.23;;;3.67;;
53666;SDS011;39568;51.026;5.468;2022-11-24T03:43:59;28.20;;;3.53;;
53666;SDS011;39568;51.026;5.468;2022-11-24T03:46:26;28.92;;;4.43;;
53666;SDS011;39568;51.026;5.468;2022-11-24T03:48:53;36.75;;;3.92;;
53666;SDS011;39568;51.026;5.468;2022-11-24T03:51:20;28.58;;;2.88;;
53666;SDS011;39568;51.026;5.468;2022-11-24T03:53:48;38.72;;;4.90;;
53666;SDS011;39568;51.026;5.468;2022-11-24T03:56:14;28.35;;;3.97;;
53666;SDS011;39568;51.026;5.468;2022-11-24T03:58:41;23.15;;;3.65;;
53666;SDS011;39568;51.026;5.468;2022-11-24T04:01:08;25.42;;;3.90;;
53666;SDS011;39568;51.026;5.468;2022-11-24T04:03:34;12.07;;;3.20;;
53666;SDS011;39568;51.026;5.468;2022-11-24T04:06:01;24.02;;;4.22;;
53666;SDS011;39568;51.026;5.468;2022-11-24T04:08:28;28.63;;;4.30;;
53666;SDS011;39568;51.026;5.468;2022-11-24T04:10:56;16.40;;;3.10;;
53666;SDS011;39568;51.026;5.468;2022-11-24T04:13:23;27.85;;;4.68;;
53666;SDS011;39568;51.026;5.468;2022-11-24T04:15:49;42.67;;;4.88;;
53666;SDS011;39568;51.026;5.468;2022-11-24T04:18:16;25.75;;;3.00;;
53666;SDS011;39568;51.026;5.468;2022-11-24T04:20:43;20.45;;;2.83;;
53666;SDS011;39568;51.026;5.468;2022-11-24T04:23:10;25.63;;;4.00;;
53666;SDS011;39568;51.026;5.468;2022-11-24T04:25:37;33.28;;;3.80;;
53666;SDS011;39568;51.026;5.468;2022-11-24T04:28:06;39.15;;;3.92;;
53666;SDS011;39568;51.026;5.468;2022-11-24T04:30:33;11.98;;;3.00;;
53666;SDS011;39568;51.026;5.468;2022-11-24T04:33:00;27.42;;;4.20;;
53666;SDS011;39568;51.026;5.468;2022-11-24T04:35:27;29.58;;;3.38;;
53666;SDS011;39568;51.026;5.468;2022-11-24T04:37:53;19.02;;;3.45;;
53666;SDS011;39568;51.026;5.468;2022-11-24T04:40:20;20.73;;;4.32;;
53666;SDS011;39568;51.026;5.468;2022-11-24T04:42:53;23.90;;;3.58;;
53666;SDS011;39568;51.026;5.468;2022-11-24T04:45:21;24.83;;;3.38;;
53666;SDS011;39568;51.026;5.468;2022-11-24T04:47:48;23.58;;;3.33;;
53666;SDS011;39568;51.026;5.468;2022-11-24T04:50:15;15.15;;;3.33;;
53666;SDS011;39568;51.026;5.468;2022-11-24T04:52:42;16.10;;;2.35;;
53666;SDS011;39568;51.026;5.468;2022-11-24T04:55:09;11.32;;;2.97;;
53666;SDS011;39568;51.026;5.468;2022-11-24T04:57:35;15.30;;;3.20;;
53666;SDS011;39568;51.026;5.468;2022-11-24T05:00:03;7.38;;;1.60;;
53666;SDS011;39568;51.026;5.468;2022-11-24T05:02:31;18.70;;;2.10;;
53666;SDS011;39568;51.026;5.468;2022-11-24T05:04:58;13.25;;;1.67;;
53666;SDS011;39568;51.026;5.468;2022-11-24T05:07:25;11.05;;;2.30;;
53666;SDS011;39568;51.026;5.468;2022-11-24T05:09:52;16.10;;;2.70;;
53666;SDS011;39568;51.026;5.468;2022-11-24T05:12:36;12.85;;;2.35;;
53666;SDS011;39568;51.026;5.468;2022-11-24T05:15:04;11.27;;;1.90;;
53666;SDS011;39568;51.026;5.468;2022-11-24T05:17:34;10.48;;;2.05;;
53666;SDS011;39568;51.026;5.468;2022-11-24T05:20:03;6.85;;;1.75;;
53666;SDS011;39568;51.026;5.468;2022-11-24T05:22:31;13.13;;;2.30;;
53666;SDS011;39568;51.026;5.468;2022-11-24T05:24:58;7.57;;;1.70;;
53666;SDS011;39568;51.026;5.468;2022-11-24T05:27:24;7.80;;;1.38;;
53666;SDS011;39568;51.026;5.468;2022-11-24T05:29:51;3.65;;;0.95;;
53666;SDS011;39568;51.026;5.468;2022-11-24T05:32:18;12.82;;;1.80;;
53666;SDS011;39568;51.026;5.468;2022-11-24T05:34:46;6.43;;;1.13;;
53666;SDS011;39568;51.026;5.468;2022-11-24T05:37:13;5.57;;;1.08;;
53666;SDS011;39568;51.026;5.468;2022-11-24T05:39:40;5.65;;;1.58;;
53666;SDS011;39568;51.026;5.468;2022-11-24T05:42:07;2.35;;;1.20;;
53666;SDS011;39568;51.026;5.468;2022-11-24T05:44:48;0.95;;;0.63;;
53666;SDS011;39568;51.026;5.468;2022-11-24T05:47:15;9.32;;;1.25;;
53666;SDS011;39568;51.026;5.468;2022-11-24T05:49:41;7.75;;;0.82;;
53666;SDS011;39568;51.026;5.468;2022-11-24T05:52:10;2.60;;;0.90;;
53666;SDS011;39568;51.026;5.468;2022-11-24T05:54:37;5.30;;;0.43;;
53666;SDS011;39568;51.026;5.468;2022-11-24T05:57:03;1.00;;;0.80;;
53666;SDS011;39568;51.026;5.468;2022-11-24T05:59:30;7.20;;;1.60;;
53666;SDS011;39568;51.026;5.468;2022-11-24T06:01:57;3.50;;;0.65;;
53666;SDS011;39568;51.026;5.468;2022-11-24T06:04:23;5.32;;;0.60;;
53666;SDS011;39568;51.026;5.468;2022-11-24T06:06:50;3.53;;;1.00;;
53666;SDS011;39568;51.026;5.468;2022-11-24T06:09:18;6.15;;;0.60;;
53666;SDS011;39568;51.026;5.468;2022-11-24T06:11:45;3.95;;;1.10;;
53666;SDS011;39568;51.026;5.468;2022-11-24T06:14:12;1.95;;;0.70;;
53666;SDS011;39568;51.026;5.468;2022-11-24T06:16:39;2.17;;;0.63;;
53666;SDS011;39568;51.026;5.468;2022-11-24T06:19:06;2.78;;;0.80;;
53666;SDS011;39568;51.026;5.468;2022-11-24T06:21:32;2.80;;;0.32;;
53666;SDS011;39568;51.026;5.468;2022-11-24T06:23:59;0.43;;;0.43;;
53666;SDS011;39568;51.026;5.468;2022-11-24T06:26:27;3.22;;;0.63;;
53666;SDS011;39568;51.026;5.468;2022-11-24T06:28:54;3.55;;;0.95;;
53666;SDS011;39568;51.026;5.468;2022-11-24T06:31:21;2.83;;;1.73;;
53666;SDS011;39568;51.026;5.468;2022-11-24T06:33:47;0.75;;;0.35;;
53666;SDS011;39568;51.026;5.468;2022-11-24T06:36:14;1.23;;;0.70;;
53666;SDS011;39568;51.026;5.468;2022-11-24T06:38:41;1.00;;;0.77;;
53666;SDS011;39568;51.026;5.468;2022-11-24T06:41:08;1.15;;;0.57;;
53666;SDS011;39568;51.026;5.468;2022-11-24T06:43:39;4.13;;;0.60;;
53666;SDS011;39568;51.026;5.468;2022-11-24T06:46:06;2.58;;;0.82;;
53666;SDS011;39568;51.026;5.468;2022-11-24T06:48:33;4.60;;;0.93;;
53666;SDS011;39568;51.026;5.468;2022-11-24T06:50:59;8.18;;;1.17;;
53666;SDS011;39568;51.026;5.468;2022-11-24T06:53:28;5.80;;;0.60;;
53666;SDS011;39568;51.026;5.468;2022-11-24T06:55:56;5.97;;;0.93;;
53666;SDS011;39568;51.026;5.468;2022-11-24T06:58:24;6.32;;;0.60;;
53666;SDS011;39568;51.026;5.468;2022-11-24T07:00:52;3.17;;;0.80;;
53666;SDS011;39568;51.026;5.468;2022-11-24T07:03:18;8.40;;;1.13;;
53666;SDS011;39568;51.026;5.468;2022-11-24T07:05:45;1.63;;;1.02;;
53666;SDS011;39568;51.026;5.468;2022-11-24T07:08:12;2.28;;;0.93;;
53666;SDS011;39568;51.026;5.468;2022-11-24T07:10:38;6.20;;;2.65;;
53666;SDS011;39568;51.026;5.468;2022-11-24T07:13:05;5.28;;;1.52;;
53666;SDS011;39568;51.026;5.468;2022-11-24T07:15:32;6.70;;;1.92;;
53666;SDS011;39568;51.026;5.468;2022-11-24T07:18:00;6.97;;;0.75;;
53666;SDS011;39568;51.026;5.468;2022-11-24T07:20:27;6.00;;;1.60;;
53666;SDS011;39568;51.026;5.468;2022-11-24T07:22:54;2.25;;;1.13;;
53666;SDS011;39568;51.026;5.468;2022-11-24T07:25:22;11.18;;;2.45;;
53666;SDS011;39568;51.026;5.468;2022-11-24T07:27:48;14.68;;;1.67;;
53666;SDS011;39568;51.026;5.468;2022-11-24T07:30:15;11.05;;;1.73;;
53666;SDS011;39568;51.026;5.468;2022-11-24T07:32:42;9.10;;;1.75;;
53666;SDS011;39568;51.026;5.468;2022-11-24T07:35:10;3.92;;;1.23;;
53666;SDS011;39568;51.026;5.468;2022-11-24T07:37:37;15.45;;;1.77;;
53666;SDS011;39568;51.026;5.468;2022-11-24T07:40:04;3.75;;;2.08;;
53666;SDS011;39568;51.026;5.468;2022-11-24T07:42:32;9.90;;;1.45;;
53666;SDS011;39568;51.026;5.468;2022-11-24T07:44:58;3.97;;;1.30;;
53666;SDS011;39568;51.026;5.468;2022-11-24T07:47:25;11.05;;;2.50;;
53666;SDS011;39568;51.026;5.468;2022-11-24T07:49:51;6.57;;;2.28;;
53666;SDS011;39568;51.026;5.468;2022-11-24T07:52:19;13.73;;;1.98;;
53666;SDS011;39568;51.026;5.468;2022-11-24T07:54:47;8.07;;;1.88;;
53666;SDS011;39568;51.026;5.468;2022-11-24T07:57:14;11.43;;;2.78;;
53666;SDS011;39568;51.026;5.468;2022-11-24T07:59:40;21.13;;;3.15;;
53666;SDS011;39568;51.026;5.468;2022-11-24T08:02:07;18.80;;;4.85;;
53666;SDS011;39568;51.026;5.468;2022-11-24T08:04:35;24.45;;;2.58;;
53666;SDS011;39568;51.026;5.468;2022-11-24T08:07:02;13.30;;;1.75;;
53666;SDS011;39568;51.026;5.468;2022-11-24T08:09:30;13.48;;;1.35;;
53666;SDS011;39568;51.026;5.468;2022-11-24T08:11:56;14.20;;;2.00;;
53666;SDS011;39568;51.026;5.468;2022-11-24T08:14:23;16.45;;;3.05;;
53666;SDS011;39568;51.026;5.468;2022-11-24T08:16:50;13.95;;;2.55;;
53666;SDS011;39568;51.026;5.468;2022-11-24T08:19:16;12.30;;;3.67;;
53666;SDS011;39568;51.026;5.468;2022-11-24T08:21:43;14.07;;;3.85;;
53666;SDS011;39568;51.026;5.468;2022-11-24T08:24:10;8.48;;;1.30;;
53666;SDS011;39568;51.026;5.468;2022-11-24T08:26:40;3.25;;;2.53;;
53666;SDS011;39568;51.026;5.468;2022-11-24T08:29:07;12.40;;;1.60;;
53666;SDS011;39568;51.026;5.468;2022-11-24T08:31:36;5.10;;;1.90;;
53666;SDS011;39568;51.026;5.468;2022-11-24T08:34:04;7.63;;;1.23;;
53666;SDS011;39568;51.026;5.468;2022-11-24T08:36:31;5.40;;;2.60;;
53666;SDS011;39568;51.026;5.468;2022-11-24T08:38:58;7.45;;;1.58;;
53666;SDS011;39568;51.026;5.468;2022-11-24T08:41:26;5.97;;;1.75;;
53666;SDS011;39568;51.026;5.468;2022-11-24T08:43:55;5.88;;;1.45;;
53666;SDS011;39568;51.026;5.468;2022-11-24T08:46:21;12.27;;;2.22;;
53666;SDS011;39568;51.026;5.468;2022-11-24T08:48:48;2.30;;;1.20;;
53666;SDS011;39568;51.026;5.468;2022-11-24T08:51:17;8.15;;;1.30;;
53666;SDS011;39568;51.026;5.468;2022-11-24T08:53:44;6.50;;;1.50;;
53666;SDS011;39568;51.026;5.468;2022-11-24T08:56:11;5.72;;;1.35;;
53666;SDS011;39568;51.026;5.468;2022-11-24T08:58:38;5.97;;;1.70;;
53666;SDS011;39568;51.026;5.468;2022-11-24T09:01:08;4.32;;;1.08;;
53666;SDS011;39568;51.026;5.468;2022-11-24T09:03:36;7.72;;;1.35;;
53666;SDS011;39568;51.026;5.468;2022-11-24T09:06:03;17.40;;;4.72;;
53666;SDS011;39568;51.026;5.468;2022-11-24T09:08:30;6.25;;;2.28;;
53666;SDS011;39568;51.026;5.468;2022-11-24T09:10:58;7.70;;;1.52;;
53666;SDS011;39568;51.026;5.468;2022-11-24T09:13:25;7.00;;;2.10;;
53666;SDS011;39568;51.026;5.468;2022-11-24T09:15:52;9.05;;;2.20;;
53666;SDS011;39568;51.026;5.468;2022-11-24T09:18:20;14.68;;;2.65;;
53666;SDS011;39568;51.026;5.468;2022-11-24T09:20:46;4.55;;;1.38;;
53666;SDS011;39568;51.026;5.468;2022-11-24T09:23:13;9.52;;;1.42;;
53666;SDS011;39568;51.026;5.468;2022-11-24T09:25:40;8.73;;;1.70;;
53666;SDS011;39568;51.026;5.468;2022-11-24T09:28:06;12.48;;;1.70;;
53666;SDS011;39568;51.026;5.468;2022-11-24T09:30:33;9.77;;;2.17;;
53666;SDS011;39568;51.026;5.468;2022-11-24T09:33:00;17.40;;;1.77;;
53666;SDS011;39568;51.026;5.468;2022-11-24T09:35:28;6.88;;;1.55;;
53666;SDS011;39568;51.026;5.468;2022-11-24T09:37:54;11.70;;;1.67;;
53666;SDS011;39568;51.026;5.468;2022-11-24T09:40:21;9.40;;;1.67;;
53666;SDS011;39568;51.026;5.468;2022-11-24T09:42:50;6.63;;;2.10;;
53666;SDS011;39568;51.026;5.468;2022-11-24T09:45:25;4.93;;;1.67;;
53666;SDS011;39568;51.026;5.468;2022-11-24T09:47:59;4.95;;;1.45;;
53666;SDS011;39568;51.026;5.468;2022-11-24T09:50:30;15.63;;;1.83;;
53666;SDS011;39568;51.026;5.468;2022-11-24T09:53:01;6.25;;;1.60;;
53666;SDS011;39568;51.026;5.468;2022-11-24T09:55:32;13.98;;;2.38;;
53666;SDS011;39568;51.026;5.468;2022-11-24T09:58:14;8.00;;;1.50;;
53666;SDS011;39568;51.026;5.468;2022-11-24T10:00:49;10.23;;;2.28;;
53666;SDS011;39568;51.026;5.468;2022-11-24T10:03:19;5.05;;;1.98;;
53666;SDS011;39568;51.026;5.468;2022-11-24T10:05:51;3.55;;;1.05;;
53666;SDS011;39568;51.026;5.468;2022-11-24T10:08:22;8.52;;;2.53;;
53666;SDS011;39568;51.026;5.468;2022-11-24T10:11:06;7.90;;;1.75;;
53666;SDS011;39568;51.026;5.468;2022-11-24T10:13:45;6.70;;;1.80;;
53666;SDS011;39568;51.026;5.468;2022-11-24T10:16:33;6.93;;;1.80;;
53666;SDS011;39568;51.026;5.468;2022-11-24T10:19:09;22.00;;;2.38;;
53666;SDS011;39568;51.026;5.468;2022-11-24T10:21:53;5.78;;;1.00;;
53666;SDS011;39568;51.026;5.468;2022-11-24T10:24:41;12.50;;;2.38;;
53666;SDS011;39568;51.026;5.468;2022-11-24T10:27:18;10.45;;;2.83;;
53666;SDS011;39568;51.026;5.468;2022-11-24T10:29:51;6.65;;;1.35;;
53666;SDS011;39568;51.026;5.468;2022-11-24T10:32:20;12.20;;;1.55;;
53666;SDS011;39568;51.026;5.468;2022-11-24T10:34:49;18.45;;;2.10;;
53666;SDS011;39568;51.026;5.468;2022-11-24T10:37:19;11.75;;;2.03;;
53666;SDS011;39568;51.026;5.468;2022-11-24T10:39:51;13.05;;;2.00;;
53666;SDS011;39568;51.026;5.468;2022-11-24T10:42:25;13.13;;;2.55;;
53666;SDS011;39568;51.026;5.468;2022-11-24T10:45:00;4.78;;;1.52;;
53666;SDS011;39568;51.026;5.468;2022-11-24T10:47:28;13.65;;;3.17;;
53666;SDS011;39568;51.026;5.468;2022-11-24T10:49:55;10.25;;;2.00;;
53666;SDS011;39568;51.026;5.468;2022-11-24T10:52:27;7.15;;;1.75;;
53666;SDS011;39568;51.026;5.468;2022-11-24T10:54:55;5.28;;;1.70;;
53666;SDS011;39568;51.026;5.468;2022-11-24T10:57:27;8.70;;;2.67;;
53666;SDS011;39568;51.026;5.468;2022-11-24T10:59:56;3.88;;;1.60;;
53666;SDS011;39568;51.026;5.468;2022-11-24T11:02:30;14.93;;;3.17;;
53666;SDS011;39568;51.026;5.468;2022-11-24T11:05:23;8.35;;;1.60;;
53666;SDS011;39568;51.026;5.468;2022-11-24T11:07:53;7.25;;;2.28;;
53666;SDS011;39568;51.026;5.468;2022-11-24T11:10:40;24.67;;;9.77;;
53666;SDS011;39568;51.026;5.468;2022-11-24T11:13:19;13.82;;;3.22;;
53666;SDS011;39568;51.026;5.468;2022-11-24T11:15:47;18.98;;;2.08;;
53666;SDS011;39568;51.026;5.468;2022-11-24T11:18:14;8.43;;;1.98;;
53666;SDS011;39568;51.026;5.468;2022-11-24T11:20:48;11.00;;;1.77;;
53666;SDS011;39568;51.026;5.468;2022-11-24T11:23:20;7.55;;;1.48;;
53666;SDS011;39568;51.026;5.468;2022-11-24T11:25:51;8.30;;;1.77;;
53666;SDS011;39568;51.026;5.468;2022-11-24T11:28:58;4.00;;;0.98;;
53666;SDS011;39568;51.026;5.468;2022-11-24T11:31:27;5.60;;;1.67;;
53666;SDS011;39568;51.026;5.468;2022-11-24T11:33:57;12.73;;;3.13;;
53666;SDS011;39568;51.026;5.468;2022-11-24T11:36:25;14.48;;;3.38;;
53666;SDS011;39568;51.026;5.468;2022-11-24T11:38:54;11.95;;;2.70;;
53666;SDS011;39568;51.026;5.468;2022-11-24T11:41:23;20.92;;;2.08;;
53666;SDS011;39568;51.026;5.468;2022-11-24T11:43:57;15.27;;;2.40;;
53666;SDS011;39568;51.026;5.468;2022-11-24T11:46:32;14.02;;;2.17;;
53666;SDS011;39568;51.026;5.468;2022-11-24T11:48:59;13.15;;;2.83;;
53666;SDS011;39568;51.026;5.468;2022-11-24T11:51:29;16.85;;;2.00;;
53666;SDS011;39568;51.026;5.468;2022-11-24T11:54:12;6.53;;;2.08;;
53666;SDS011;39568;51.026;5.468;2022-11-24T11:56:44;16.08;;;3.55;;
53666;SDS011;39568;51.026;5.468;2022-11-24T11:59:21;15.73;;;6.00;;
53666;SDS011;39568;51.026;5.468;2022-11-24T12:05:13;15.02;;;2.17;;
53666;SDS011;39568;51.026;5.468;2022-11-24T12:07:49;4.35;;;2.15;;
53666;SDS011;39568;51.026;5.468;2022-11-24T12:10:30;17.80;;;3.47;;
53666;SDS011;39568;51.026;5.468;2022-11-24T12:13:05;9.32;;;2.13;;
53666;SDS011;39568;51.026;5.468;2022-11-24T12:15:45;6.38;;;1.58;;
53666;SDS011;39568;51.026;5.468;2022-11-24T12:18:18;9.35;;;1.95;;
53666;SDS011;39568;51.026;5.468;2022-11-24T12:20:55;8.50;;;2.13;;
53666;SDS011;39568;51.026;5.468;2022-11-24T12:23:34;11.05;;;2.08;;
53666;SDS011;39568;51.026;5.468;2022-11-24T12:26:17;18.75;;;2.03;;
53666;SDS011;39568;51.026;5.468;2022-11-24T12:28:51;6.53;;;2.00;;
53666;SDS011;39568;51.026;5.468;2022-11-24T12:31:29;6.90;;;1.77;;
53666;SDS011;39568;51.026;5.468;2022-11-24T12:34:12;13.20;;;2.58;;
53666;SDS011;39568;51.026;5.468;2022-11-24T12:36:53;17.48;;;2.60;;
53666;SDS011;39568;51.026;5.468;2022-11-24T12:39:30;12.02;;;2.20;;
53666;SDS011;39568;51.026;5.468;2022-11-24T12:42:09;7.18;;;1.35;;
53666;SDS011;39568;51.026;5.468;2022-11-24T12:44:46;7.18;;;2.15;;
53666;SDS011;39568;51.026;5.468;2022-11-24T12:47:27;10.10;;;2.20;;
53666;SDS011;39568;51.026;5.468;2022-11-24T12:50:02;3.90;;;1.67;;
53666;SDS011;39568;51.026;5.468;2022-11-24T12:52:36;5.88;;;1.67;;
53666;SDS011;39568;51.026;5.468;2022-11-24T12:55:08;10.50;;;2.08;;
53666;SDS011;39568;51.026;5.468;2022-11-24T12:57:41;12.65;;;1.45;;
53666;SDS011;39568;51.026;5.468;2022-11-24T13:00:14;12.85;;;1.90;;
53666;SDS011;39568;51.026;5.468;2022-11-24T13:02:50;15.20;;;2.15;;
53666;SDS011;39568;51.026;5.468;2022-11-24T13:05:30;6.68;;;1.50;;
53666;SDS011;39568;51.026;5.468;2022-11-24T13:08:02;9.55;;;1.30;;
53666;SDS011;39568;51.026;5.468;2022-11-24T13:10:33;8.80;;;2.67;;
53666;SDS011;39568;51.026;5.468;2022-11-24T13:13:03;7.10;;;2.00;;
53666;SDS011;39568;51.026;5.468;2022-11-24T13:15:32;9.85;;;2.95;;
53666;SDS011;39568;51.026;5.468;2022-11-24T13:24:19;21.58;;;3.33;;
53666;SDS011;39568;51.026;5.468;2022-11-24T13:26:49;12.18;;;2.38;;
53666;SDS011;39568;51.026;5.468;2022-11-24T13:29:31;16.50;;;3.53;;
53666;SDS011;39568;51.026;5.468;2022-11-24T13:35:16;9.35;;;2.10;;
53666;SDS011;39568;51.026;5.468;2022-11-24T13:37:44;15.30;;;6.43;;
53666;SDS011;39568;51.026;5.468;2022-11-24T13:43:18;8.52;;;2.25;;
53666;SDS011;39568;51.026;5.468;2022-11-24T13:45:48;8.45;;;2.15;;
53666;SDS011;39568;51.026;5.468;2022-11-24T13:51:26;12.48;;;2.92;;
53666;SDS011;39568;51.026;5.468;2022-11-24T13:53:53;17.02;;;3.40;;
53666;SDS011;39568;51.026;5.468;2022-11-24T13:56:31;15.60;;;2.72;;
53666;SDS011;39568;51.026;5.468;2022-11-24T13:58:58;15.48;;;2.67;;
53666;SDS011;39568;51.026;5.468;2022-11-24T14:01:29;11.23;;;2.70;;
53666;SDS011;39568;51.026;5.468;2022-11-24T14:04:02;9.00;;;1.85;;
53666;SDS011;39568;51.026;5.468;2022-11-24T14:06:36;15.65;;;2.22;;
53666;SDS011;39568;51.026;5.468;2022-11-24T14:09:15;13.70;;;1.70;;
53666;SDS011;39568;51.026;5.468;2022-11-24T14:11:53;15.20;;;2.22;;
53666;SDS011;39568;51.026;5.468;2022-11-24T14:14:23;10.07;;;2.00;;
53666;SDS011;39568;51.026;5.468;2022-11-24T14:17:05;11.23;;;2.60;;
53666;SDS011;39568;51.026;5.468;2022-11-24T14:19:43;13.10;;;1.85;;
53666;SDS011;39568;51.026;5.468;2022-11-24T14:22:12;13.02;;;2.90;;
53666;SDS011;39568;51.026;5.468;2022-11-24T14:24:41;14.18;;;2.47;;
53666;SDS011;39568;51.026;5.468;2022-11-24T14:27:11;16.70;;;3.92;;
53666;SDS011;39568;51.026;5.468;2022-11-24T14:29:50;19.23;;;2.67;;
53666;SDS011;39568;51.026;5.468;2022-11-24T14:32:19;22.15;;;2.80;;
53666;SDS011;39568;51.026;5.468;2022-11-24T14:34:46;9.68;;;2.50;;
53666;SDS011;39568;51.026;5.468;2022-11-24T14:37:13;10.07;;;2.25;;
53666;SDS011;39568;51.026;5.468;2022-11-24T14:39:40;33.30;;;3.08;;
53666;SDS011;39568;51.026;5.468;2022-11-24T14:42:14;8.10;;;2.80;;
53666;SDS011;39568;51.026;5.468;2022-11-24T14:44:44;12.85;;;2.35;;
53666;SDS011;39568;51.026;5.468;2022-11-24T14:47:15;12.60;;;3.00;;
53666;SDS011;39568;51.026;5.468;2022-11-24T14:49:47;14.68;;;2.22;;
53666;SDS011;39568;51.026;5.468;2022-11-24T14:52:16;13.73;;;1.90;;
53666;SDS011;39568;51.026;5.468;2022-11-24T14:54:45;8.65;;;2.38;;
53666;SDS011;39568;51.026;5.468;2022-11-24T14:57:25;13.40;;;2.17;;
53666;SDS011;39568;51.026;5.468;2022-11-24T15:00:03;33.97;;;9.63;;
53666;SDS011;39568;51.026;5.468;2022-11-24T15:02:39;30.98;;;11.82;;
53666;SDS011;39568;51.026;5.468;2022-11-24T15:05:08;25.42;;;5.45;;
53666;SDS011;39568;51.026;5.468;2022-11-24T15:07:34;17.40;;;5.05;;
53666;SDS011;39568;51.026;5.468;2022-11-24T15:10:03;15.23;;;2.97;;
53666;SDS011;39568;51.026;5.468;2022-11-24T15:12:32;24.10;;;2.85;;
53666;SDS011;39568;51.026;5.468;2022-11-24T15:15:03;16.95;;;3.50;;